Terminal Aerodrome Forecast
Issued by NWS Buffalo, NY

Home | Current Version | Previous Version | Text Only | Print | Product List | Glossary On
Versions: 1 2 3 4 5 6 7 8 9 10 11 12 13 14 15 16 17 18 19 20 21 22 23 24 25 26 27 28 29 30 31 32 33 34 35 36 37
000
FTUS41 KBUF 222300
TAFBUF
TAF
KBUF 222321Z 2300/2324 01005KT P6SM BKN035
     FM230600 35006KT P6SM SCT025
     FM231500 35010KT P6SM BKN040
     FM232200 32006KT P6SM SCT040=

USA.gov is the U.S. government's official web portal to all federal, state and local government web resources and services.